createdAt,value
2023-09-05T00:01:58.097Z,89.20
2023-09-05T00:04:25.931Z,89.30
2023-09-05T00:06:53.428Z,88.40
2023-09-05T00:09:20.897Z,89.00
2023-09-05T00:11:48.713Z,88.10
2023-09-05T00:14:18.865Z,88.90
2023-09-05T00:16:46.350Z,88.90
2023-09-05T00:19:14.287Z,89.00
2023-09-05T00:21:41.816Z,89.40
2023-09-05T00:24:26.740Z,89.40
2023-09-05T00:26:54.302Z,89.30
2023-09-05T00:29:22.182Z,89.30
2023-09-05T00:31:49.641Z,89.30
2023-09-05T00:34:17.451Z,90.00
2023-09-05T00:36:44.972Z,90.20
2023-09-05T00:39:12.404Z,90.00
2023-09-05T00:41:39.850Z,89.90
2023-09-05T00:44:07.369Z,90.10
2023-09-05T00:46:35.114Z,90.40
2023-09-05T00:49:05.937Z,90.10
2023-09-05T00:51:33.781Z,90.00
2023-09-05T00:54:03.511Z,90.10
2023-09-05T00:56:31.414Z,90.10
2023-09-05T00:59:00.338Z,90.20
2023-09-05T01:01:27.824Z,90.30
2023-09-05T01:03:58.429Z,90.40
2023-09-05T01:06:47.880Z,90.50
2023-09-05T01:09:26.743Z,92.20
2023-09-05T01:11:55.824Z,93.20
2023-09-05T01:14:23.487Z,94.50
2023-09-05T01:16:50.980Z,94.80
2023-09-05T01:19:18.590Z,95.10
2023-09-05T01:22:07.821Z,93.60
2023-09-05T01:24:36.875Z,92.70
2023-09-05T01:27:05.229Z,92.30
2023-09-05T01:29:36.874Z,92.10
2023-09-05T01:32:05.133Z,92.20
2023-09-05T01:37:01.745Z,92.20
2023-09-05T01:39:29.280Z,92.60
2023-09-05T01:42:00.041Z,92.60
2023-09-05T01:44:27.710Z,92.50
2023-09-05T01:46:55.265Z,92.60
2023-09-05T01:49:22.730Z,92.70
2023-09-05T01:51:50.202Z,92.50
2023-09-05T01:54:18.314Z,92.70
2023-09-05T01:56:47.095Z,92.50
2023-09-05T01:59:15.434Z,92.60
2023-09-05T02:01:43.218Z,92.50
2023-09-05T02:04:11.128Z,92.20
2023-09-05T02:06:38.612Z,90.40
2023-09-05T02:09:06.192Z,90.00
2023-09-05T02:11:33.925Z,89.30
2023-09-05T02:14:01.435Z,88.00
2023-09-05T02:16:29.367Z,88.40
2023-09-05T02:18:57.005Z,87.60
2023-09-05T02:21:24.480Z,87.20
2023-09-05T02:23:52.014Z,86.80
2023-09-05T02:26:19.497Z,86.00
2023-09-05T02:28:46.922Z,86.70
2023-09-05T02:31:14.440Z,85.70
2023-09-05T02:33:42.169Z,85.10
2023-09-05T02:36:16.753Z,84.70
2023-09-05T02:38:45.129Z,82.40
2023-09-05T02:41:17.386Z,82.50
2023-09-05T02:43:48.021Z,81.70
2023-09-05T02:46:16.241Z,80.90
2023-09-05T02:48:44.162Z,81.20
2023-09-05T02:51:13.525Z,80.30
2023-09-05T02:53:41.785Z,80.80
2023-09-05T02:56:09.413Z,80.50
2023-09-05T02:58:37.009Z,80.10
2023-09-05T03:01:06.544Z,80.10
2023-09-05T03:03:34.215Z,80.30
2023-09-05T03:06:15.743Z,80.10
2023-09-05T03:08:46.647Z,80.10
2023-09-05T03:11:16.885Z,80.10
2023-09-05T03:13:48.422Z,80.00
2023-09-05T03:16:17.535Z,80.20
2023-09-05T03:18:48.702Z,80.60
2023-09-05T03:21:16.125Z,80.60
2023-09-05T03:23:43.612Z,80.70
2023-09-05T03:26:11.104Z,81.00
2023-09-05T03:28:46.671Z,81.10
2023-09-05T03:31:17.721Z,81.60
2023-09-05T03:33:45.278Z,81.60
2023-09-05T03:36:12.794Z,81.50
2023-09-05T03:38:40.344Z,81.70
2023-09-05T03:41:07.848Z,82.10
2023-09-05T03:43:35.381Z,82.00
2023-09-05T03:46:02.899Z,82.90
2023-09-05T03:48:30.511Z,82.50
2023-09-05T03:50:58.082Z,82.80
2023-09-05T03:53:25.934Z,82.90
2023-09-05T03:55:53.693Z,83.00
2023-09-05T03:58:21.770Z,82.90
2023-09-05T04:00:49.225Z,82.60
2023-09-05T04:03:17.622Z,82.40
2023-09-05T04:05:45.258Z,81.80
2023-09-05T04:08:12.863Z,82.50
2023-09-05T04:10:40.406Z,81.20
2023-09-05T04:13:08.048Z,81.30
2023-09-05T04:15:37.271Z,81.10
2023-09-05T04:18:06.093Z,81.00
2023-09-05T04:20:33.721Z,80.80
2023-09-05T04:23:01.276Z,80.90
2023-09-05T04:25:28.727Z,80.60
2023-09-05T04:27:56.212Z,80.50
2023-09-05T04:30:23.755Z,80.30
2023-09-05T04:32:51.339Z,80.30
2023-09-05T04:35:20.584Z,80.20
2023-09-05T04:37:48.088Z,80.40
2023-09-05T04:40:15.777Z,81.00
2023-09-05T04:42:43.225Z,80.50
2023-09-05T04:45:11.130Z,81.20
2023-09-05T04:47:41.914Z,80.60
2023-09-05T04:50:10.130Z,79.80
2023-09-05T04:52:38.237Z,79.90
2023-09-05T04:55:06.154Z,80.10
2023-09-05T04:57:33.544Z,79.90
2023-09-05T05:00:01.594Z,79.30
2023-09-05T05:02:32.781Z,79.30
2023-09-05T05:05:00.294Z,79.10
2023-09-05T05:07:27.802Z,78.00
2023-09-05T05:09:55.283Z,78.20
2023-09-05T05:12:22.702Z,78.10
2023-09-05T05:14:50.149Z,78.20
2023-09-05T05:17:17.634Z,77.60
2023-09-05T05:19:45.196Z,78.20
2023-09-05T05:22:12.707Z,77.90
2023-09-05T05:24:40.229Z,77.30
2023-09-05T05:27:08.108Z,77.70
2023-09-05T05:29:35.677Z,77.80
2023-09-05T05:32:03.155Z,78.00
2023-09-05T05:34:32.413Z,77.30
2023-09-05T05:37:00.198Z,77.70
2023-09-05T05:39:27.628Z,78.40
2023-09-05T05:41:55.201Z,77.40
2023-09-05T05:44:22.723Z,77.40
2023-09-05T05:46:50.285Z,77.70
2023-09-05T05:49:17.831Z,77.70
2023-09-05T05:51:45.319Z,77.40
2023-09-05T05:54:12.774Z,77.20
2023-09-05T05:56:40.271Z,77.60
2023-09-05T05:59:08.026Z,77.80
2023-09-05T06:01:35.663Z,77.50
2023-09-05T06:04:03.364Z,77.30
2023-09-05T06:06:31.069Z,77.60
2023-09-05T06:08:58.615Z,77.20
2023-09-05T06:11:26.066Z,77.40
2023-09-05T06:13:53.877Z,77.50
2023-09-05T06:16:22.706Z,78.00
2023-09-05T06:18:50.244Z,76.90
2023-09-05T06:21:17.898Z,76.60
2023-09-05T06:23:45.324Z,76.90
2023-09-05T06:26:12.743Z,77.30
2023-09-05T06:28:40.322Z,76.30
2023-09-05T06:31:08.445Z,76.40
2023-09-05T06:33:35.893Z,76.40
2023-09-05T06:36:07.368Z,76.10
2023-09-05T06:38:35.017Z,76.50
2023-09-05T06:41:09.873Z,76.70
2023-09-05T06:43:38.125Z,75.70
2023-09-05T06:46:07.730Z,76.40
2023-09-05T06:48:36.145Z,77.10
2023-09-05T06:51:03.810Z,75.80
2023-09-05T06:53:32.176Z,75.90
2023-09-05T06:55:59.697Z,76.30
2023-09-05T06:58:28.009Z,75.80
2023-09-05T07:00:56.733Z,75.90
2023-09-05T07:03:25.251Z,75.30
2023-09-05T07:06:05.561Z,76.10
2023-09-05T07:08:34.963Z,76.60
2023-09-05T07:11:02.673Z,76.00
2023-09-05T07:13:30.950Z,75.70
2023-09-05T07:15:59.021Z,75.30
2023-09-05T07:18:27.083Z,76.20
2023-09-05T07:20:54.962Z,76.00
2023-09-05T07:23:22.395Z,75.10
2023-09-05T07:25:50.464Z,75.90
2023-09-05T07:28:17.957Z,75.10
2023-09-05T07:30:45.418Z,74.90
2023-09-05T07:33:13.724Z,75.60
2023-09-05T07:35:44.186Z,75.40
2023-09-05T07:38:18.592Z,73.10
2023-09-05T07:40:46.147Z,73.20
2023-09-05T07:43:14.161Z,72.70
2023-09-05T07:45:41.716Z,72.40
2023-09-05T07:48:10.071Z,72.10
2023-09-05T07:50:37.792Z,70.30
2023-09-05T07:53:05.270Z,70.00
2023-09-05T07:55:32.714Z,70.00
2023-09-05T07:58:00.756Z,71.10
2023-09-05T08:00:28.495Z,70.90
2023-09-05T08:02:56.039Z,70.30
2023-09-05T08:05:23.679Z,70.30
2023-09-05T08:07:51.897Z,69.50
2023-09-05T08:10:19.350Z,69.00
2023-09-05T08:12:46.810Z,68.80
2023-09-05T08:15:14.283Z,69.70
2023-09-05T08:17:41.639Z,68.50
2023-09-05T08:20:09.765Z,68.20
2023-09-05T08:22:37.659Z,68.70
2023-09-05T08:25:05.783Z,68.60
2023-09-05T08:27:33.384Z,69.20
2023-09-05T08:30:00.870Z,68.40
2023-09-05T08:32:30.442Z,67.10
2023-09-05T08:34:58.558Z,68.40
2023-09-05T08:37:26.928Z,67.00
2023-09-05T08:39:54.396Z,67.00
2023-09-05T08:42:23.896Z,67.00
2023-09-05T08:44:54.197Z,68.60
2023-09-05T08:47:21.666Z,68.70
2023-09-05T08:49:51.867Z,67.50
2023-09-05T08:52:23.280Z,68.20
2023-09-05T08:54:51.884Z,68.40
2023-09-05T08:57:20.259Z,68.00
2023-09-05T08:59:47.692Z,68.90
2023-09-05T09:02:18.594Z,68.00
2023-09-05T09:04:53.802Z,68.70
2023-09-05T09:07:33.342Z,66.80
2023-09-05T09:10:16.087Z,66.60
2023-09-05T09:12:43.541Z,67.70
2023-09-05T09:15:15.095Z,67.90
2023-09-05T09:17:43.724Z,66.70
2023-09-05T09:20:13.469Z,66.70
2023-09-05T09:22:42.269Z,64.00
2023-09-05T09:25:21.780Z,63.70
2023-09-05T09:27:54.540Z,61.60
2023-09-05T09:30:31.441Z,62.90
2023-09-05T09:32:59.145Z,60.80
2023-09-05T09:35:27.755Z,62.80
2023-09-05T09:37:56.874Z,60.70
2023-09-05T09:40:24.304Z,59.10
2023-09-05T09:42:52.099Z,60.70
2023-09-05T09:45:20.102Z,60.00
2023-09-05T09:47:50.093Z,60.50
2023-09-05T09:50:20.826Z,60.50
2023-09-05T09:52:52.017Z,60.30
2023-09-05T09:55:23.129Z,61.00
2023-09-05T09:58:01.969Z,61.50
2023-09-05T10:00:33.712Z,61.70
2023-09-05T10:03:02.220Z,61.60
2023-09-05T10:05:33.217Z,62.20
2023-09-05T10:08:01.302Z,61.50
2023-09-05T10:10:32.952Z,61.40
2023-09-05T10:13:01.602Z,61.10
2023-09-05T10:15:31.809Z,60.80
2023-09-05T10:18:01.091Z,61.30
2023-09-05T10:20:29.685Z,61.20
2023-09-05T10:22:59.040Z,60.20
2023-09-05T10:25:29.189Z,60.60
2023-09-05T10:27:57.699Z,61.00
2023-09-05T10:30:25.127Z,60.50
2023-09-05T10:32:54.337Z,60.10
2023-09-05T10:35:23.757Z,59.90
2023-09-05T10:37:55.493Z,60.90
2023-09-05T10:40:39.739Z,60.50
2023-09-05T10:43:09.858Z,61.50
2023-09-05T10:45:39.110Z,59.20
2023-09-05T10:48:31.522Z,60.60
2023-09-05T10:51:09.026Z,61.00
2023-09-05T10:53:37.873Z,60.80
2023-09-05T10:56:06.195Z,60.50
2023-09-05T10:58:57.805Z,60.60
2023-09-05T11:01:33.313Z,59.40
2023-09-05T11:04:11.287Z,60.30
2023-09-05T11:06:40.628Z,60.10
2023-09-05T11:09:08.472Z,59.80
2023-09-05T11:11:38.318Z,60.00
2023-09-05T11:14:06.029Z,60.60
2023-09-05T11:16:53.390Z,61.10
2023-09-05T11:19:43.560Z,59.40
2023-09-05T11:22:28.889Z,60.30
2023-09-05T11:25:00.168Z,59.10
2023-09-05T11:27:33.821Z,59.90
2023-09-05T11:30:03.457Z,60.40
2023-09-05T11:32:42.562Z,61.40
2023-09-05T11:35:11.914Z,61.30
2023-09-05T11:37:39.586Z,61.10
2023-09-05T11:40:12.709Z,60.10
2023-09-05T11:42:40.254Z,59.60
2023-09-05T11:45:20.027Z,58.90
2023-09-05T11:47:48.816Z,60.40
2023-09-05T11:50:17.389Z,60.80
2023-09-05T11:52:45.518Z,61.40
2023-09-05T11:55:13.671Z,61.00
2023-09-05T11:57:42.128Z,61.20
2023-09-05T12:00:13.731Z,61.90
2023-09-05T12:02:41.339Z,59.60
2023-09-05T12:05:13.477Z,58.20
2023-09-05T12:07:41.013Z,60.60
2023-09-05T12:10:10.943Z,58.50
2023-09-05T12:12:38.673Z,61.00
2023-09-05T12:15:06.673Z,60.50
2023-09-05T12:17:34.177Z,61.50
2023-09-05T12:20:09.279Z,61.80
2023-09-05T12:22:36.778Z,62.50
2023-09-05T12:25:13.712Z,62.40
2023-09-05T12:27:45.331Z,60.80
2023-09-05T12:30:33.991Z,60.50
2023-09-05T12:33:05.395Z,62.30
2023-09-05T12:35:34.086Z,61.40
2023-09-05T12:38:03.210Z,63.90
2023-09-05T12:40:34.155Z,60.80
2023-09-05T12:43:02.009Z,61.30
2023-09-05T12:45:29.697Z,61.80
2023-09-05T12:47:57.214Z,62.10
2023-09-05T12:50:31.023Z,61.40
2023-09-05T12:53:02.568Z,62.50
2023-09-05T12:55:33.687Z,61.10
2023-09-05T12:58:05.660Z,61.90
2023-09-05T13:00:35.067Z,61.10
2023-09-05T13:03:04.755Z,61.70
2023-09-05T13:05:32.380Z,60.90
2023-09-05T13:08:00.780Z,60.90
2023-09-05T13:10:29.279Z,61.50
2023-09-05T13:13:00.161Z,62.90
2023-09-05T13:15:28.927Z,63.00
2023-09-05T13:17:56.471Z,62.70
2023-09-05T13:20:23.998Z,62.30
2023-09-05T13:22:52.350Z,62.80
2023-09-05T13:25:22.948Z,61.70
2023-09-05T13:27:51.204Z,62.80
2023-09-05T13:30:19.060Z,64.60
2023-09-05T13:32:46.570Z,62.90
2023-09-05T13:35:13.987Z,62.10
2023-09-05T13:37:42.218Z,63.60
2023-09-05T13:40:10.055Z,64.10
2023-09-05T13:42:37.729Z,62.90
2023-09-05T13:45:06.043Z,63.10
2023-09-05T13:47:34.394Z,61.20
2023-09-05T13:50:02.063Z,61.90
2023-09-05T13:52:29.538Z,62.10
2023-09-05T13:54:56.986Z,62.30
2023-09-05T13:57:24.559Z,62.50
2023-09-05T13:59:52.954Z,60.90
2023-09-05T14:02:20.446Z,61.00
2023-09-05T14:04:48.286Z,61.70
2023-09-05T14:07:15.940Z,60.00
2023-09-05T14:09:43.461Z,60.80
2023-09-05T14:12:10.977Z,61.40
2023-09-05T14:14:39.885Z,61.30
2023-09-05T14:17:07.896Z,59.70
2023-09-05T14:19:35.319Z,60.40
2023-09-05T14:22:02.829Z,60.30
2023-09-05T14:24:30.368Z,59.70
2023-09-05T14:26:58.828Z,59.40
2023-09-05T14:29:26.284Z,59.90
2023-09-05T14:31:53.701Z,59.80
2023-09-05T14:34:21.347Z,60.00
2023-09-05T14:36:48.860Z,58.90
2023-09-05T14:39:17.772Z,58.20
2023-09-05T14:41:45.277Z,58.40
2023-09-05T14:44:12.741Z,58.80
2023-09-05T14:46:40.452Z,59.00
2023-09-05T14:49:11.511Z,57.80
2023-09-05T14:51:39.898Z,58.80
2023-09-05T14:54:07.449Z,57.90
2023-09-05T14:56:39.727Z,57.60
2023-09-05T14:59:11.399Z,57.40
2023-09-05T15:01:39.282Z,58.20
2023-09-05T15:04:06.971Z,58.00
2023-09-05T15:06:34.526Z,58.80
2023-09-05T15:09:06.166Z,58.70
2023-09-05T15:11:34.751Z,59.60
2023-09-05T15:14:02.231Z,58.30
2023-09-05T15:16:29.797Z,58.80
2023-09-05T15:18:57.652Z,58.30
2023-09-05T15:21:25.472Z,59.10
2023-09-05T15:23:53.041Z,58.50
2023-09-05T15:26:20.605Z,59.90
2023-09-05T15:28:48.038Z,58.80
2023-09-05T15:31:15.666Z,58.70
2023-09-05T15:33:43.304Z,58.80
2023-09-05T15:36:10.915Z,59.50
2023-09-05T15:38:38.386Z,59.00
2023-09-05T15:41:06.306Z,59.60
2023-09-05T15:43:33.814Z,59.80
2023-09-05T15:46:01.354Z,59.50
2023-09-05T15:48:32.476Z,59.20
2023-09-05T15:51:00.668Z,59.50
2023-09-05T15:53:28.243Z,60.20
2023-09-05T15:55:55.765Z,60.20
2023-09-05T15:58:23.476Z,60.40
2023-09-05T16:00:52.089Z,61.10
2023-09-05T16:03:20.883Z,60.90
2023-09-05T16:05:50.057Z,61.80
2023-09-05T16:08:17.622Z,61.50
2023-09-05T16:10:46.023Z,61.80
2023-09-05T16:13:13.613Z,61.40
2023-09-05T16:15:41.246Z,61.10
2023-09-05T16:18:10.792Z,61.30
2023-09-05T16:20:50.069Z,62.10
2023-09-05T16:23:23.279Z,62.10
2023-09-05T16:25:51.631Z,62.70
2023-09-05T16:28:19.255Z,62.80
2023-09-05T16:30:47.119Z,63.10
2023-09-05T16:33:15.957Z,64.20
2023-09-05T16:35:43.724Z,62.70
2023-09-05T16:38:11.174Z,63.40
2023-09-05T16:40:38.595Z,63.60
2023-09-05T16:43:06.053Z,63.40
2023-09-05T16:45:33.881Z,64.30
2023-09-05T16:48:02.135Z,64.20
2023-09-05T16:50:32.713Z,63.90
2023-09-05T16:53:00.152Z,63.50
2023-09-05T16:55:27.546Z,63.10
2023-09-05T16:57:55.216Z,63.10
2023-09-05T17:00:24.967Z,62.90
2023-09-05T17:02:52.552Z,62.10
2023-09-05T17:05:20.071Z,62.10
2023-09-05T17:07:47.520Z,61.30
2023-09-05T17:10:16.656Z,61.90
2023-09-05T17:12:44.227Z,62.00
2023-09-05T17:15:12.404Z,62.50
2023-09-05T17:17:41.760Z,63.00
2023-09-05T17:20:09.864Z,63.50
2023-09-05T17:22:37.417Z,64.10
2023-09-05T17:25:05.186Z,63.70
2023-09-05T17:27:32.744Z,64.40
2023-09-05T17:30:00.190Z,64.40
2023-09-05T17:32:27.778Z,64.80
2023-09-05T17:34:55.351Z,64.90
2023-09-05T17:37:22.860Z,65.20
2023-09-05T17:39:50.488Z,65.70
2023-09-05T17:42:18.053Z,65.50
2023-09-05T17:44:45.542Z,65.90
2023-09-05T17:47:13.601Z,66.40
2023-09-05T17:49:42.052Z,66.30
2023-09-05T17:52:09.539Z,67.30
2023-09-05T17:54:37.095Z,67.30
2023-09-05T17:57:04.972Z,67.90
2023-09-05T17:59:32.873Z,67.80
2023-09-05T18:02:00.855Z,68.30
2023-09-05T18:04:28.658Z,68.20
2023-09-05T18:06:56.334Z,67.80
2023-09-05T18:09:23.800Z,68.40
2023-09-05T18:11:51.393Z,68.90
2023-09-05T18:14:21.726Z,68.80
2023-09-05T18:16:49.271Z,69.00
2023-09-05T18:19:17.096Z,69.30
2023-09-05T18:21:45.247Z,69.30
2023-09-05T18:24:12.951Z,69.60
2023-09-05T18:26:40.495Z,70.10
2023-09-05T18:29:09.804Z,70.50
2023-09-05T18:31:40.711Z,71.00
2023-09-05T18:34:28.276Z,71.30
2023-09-05T18:36:55.793Z,72.10
2023-09-05T18:39:23.351Z,72.20
2023-09-05T18:41:50.885Z,72.20
2023-09-05T18:44:18.742Z,72.60
2023-09-05T18:46:46.161Z,72.40
2023-09-05T18:49:13.666Z,73.40
2023-09-05T18:51:41.221Z,74.10
2023-09-05T18:54:09.392Z,74.60
2023-09-05T18:56:36.792Z,74.00
2023-09-05T18:59:05.119Z,73.90
2023-09-05T19:01:32.631Z,73.90
2023-09-05T19:04:00.225Z,76.50
2023-09-05T19:06:29.383Z,81.00
2023-09-05T19:08:57.221Z,81.50
2023-09-05T19:11:26.222Z,83.10
2023-09-05T19:13:53.628Z,85.70
2023-09-05T19:16:21.077Z,86.30
2023-09-05T19:18:48.795Z,85.40
2023-09-05T19:21:16.265Z,84.10
2023-09-05T19:23:43.762Z,86.50
2023-09-05T19:26:11.157Z,88.70
2023-09-05T19:28:38.604Z,87.10
2023-09-05T19:31:06.026Z,89.50
2023-09-05T19:33:33.526Z,90.60
2023-09-05T19:36:02.343Z,90.60
2023-09-05T19:38:30.191Z,90.90
2023-09-05T19:40:57.706Z,91.80
2023-09-05T19:43:25.157Z,92.00
2023-09-05T19:45:52.857Z,89.50
2023-09-05T19:48:21.500Z,91.20
2023-09-05T19:50:49.063Z,89.20
2023-09-05T19:53:16.502Z,87.10
2023-09-05T19:55:44.007Z,85.50
2023-09-05T19:58:11.514Z,85.30
2023-09-05T20:00:39.098Z,90.00
2023-09-05T20:03:06.912Z,91.20
2023-09-05T20:05:34.428Z,86.90
2023-09-05T20:08:02.015Z,85.70
2023-09-05T20:10:29.457Z,85.30
2023-09-05T20:12:56.985Z,84.90
2023-09-05T20:15:24.561Z,84.70
2023-09-05T20:17:53.142Z,84.80
2023-09-05T20:20:20.768Z,84.70
2023-09-05T20:22:48.220Z,84.60
2023-09-05T20:25:15.631Z,84.70
2023-09-05T20:27:43.293Z,84.70
2023-09-05T20:30:11.407Z,84.80
2023-09-05T20:32:38.949Z,85.50
2023-09-05T20:35:06.734Z,84.70
2023-09-05T20:37:34.201Z,84.90
2023-09-05T20:40:01.676Z,85.50
2023-09-05T20:42:29.150Z,85.90
2023-09-05T20:44:58.860Z,86.40
2023-09-05T20:47:26.680Z,86.90
2023-09-05T20:49:54.236Z,91.20
2023-09-05T20:52:21.695Z,90.30
2023-09-05T20:54:50.359Z,89.10
2023-09-05T20:57:17.897Z,87.30
2023-09-05T20:59:45.351Z,86.90
2023-09-05T21:02:12.800Z,86.90
2023-09-05T21:04:40.439Z,87.30
2023-09-05T21:07:08.215Z,87.30
2023-09-05T21:09:35.791Z,87.30
2023-09-05T21:12:03.437Z,89.40
2023-09-05T21:14:31.237Z,87.50
2023-09-05T21:16:58.757Z,87.30
2023-09-05T21:19:27.093Z,86.80
2023-09-05T21:21:54.812Z,86.70
2023-09-05T21:24:24.307Z,86.20
2023-09-05T21:26:53.265Z,86.00
2023-09-05T21:29:20.821Z,86.40
2023-09-05T21:31:48.493Z,86.10
2023-09-05T21:34:16.135Z,86.40
2023-09-05T21:36:43.764Z,86.30
2023-09-05T21:39:11.350Z,86.40
2023-09-05T21:41:38.914Z,86.50
2023-09-05T21:44:06.655Z,86.50
2023-09-05T21:46:35.129Z,86.80
2023-09-05T21:49:02.823Z,87.50
2023-09-05T21:51:30.437Z,88.30
2023-09-05T21:54:00.033Z,90.30
2023-09-05T21:56:27.640Z,90.50
2023-09-05T21:58:55.252Z,88.90
2023-09-05T22:01:22.972Z,88.70
2023-09-05T22:03:54.428Z,88.20
2023-09-05T22:06:22.128Z,87.60
2023-09-05T22:08:49.886Z,87.40
2023-09-05T22:11:17.532Z,86.70
2023-09-05T22:13:45.071Z,85.90
2023-09-05T22:16:12.646Z,85.20
2023-09-05T22:18:42.432Z,84.80
2023-09-05T22:21:13.872Z,84.50
2023-09-05T22:23:41.511Z,83.90
2023-09-05T22:26:09.560Z,83.30
2023-09-05T22:28:37.789Z,83.10
2023-09-05T22:31:05.793Z,83.20
2023-09-05T22:33:33.974Z,83.10
2023-09-05T22:36:01.565Z,83.10
2023-09-05T22:38:29.654Z,83.10
2023-09-05T22:40:57.485Z,83.00
2023-09-05T22:43:25.077Z,83.60
2023-09-05T22:45:52.692Z,83.60
2023-09-05T22:48:20.868Z,83.20
2023-09-05T22:50:48.527Z,82.90
2023-09-05T22:53:16.090Z,82.60
2023-09-05T22:55:43.645Z,83.00
2023-09-05T22:58:11.250Z,83.50
2023-09-05T23:00:39.841Z,83.70
2023-09-05T23:03:08.492Z,83.90
2023-09-05T23:05:36.184Z,84.40
2023-09-05T23:08:04.381Z,84.60
2023-09-05T23:10:32.061Z,84.90
2023-09-05T23:12:59.717Z,87.30
2023-09-05T23:15:27.563Z,90.30
2023-09-05T23:17:55.288Z,90.80
2023-09-05T23:20:23.195Z,91.30
2023-09-05T23:22:50.717Z,90.40
2023-09-05T23:25:18.311Z,89.10
2023-09-05T23:27:45.959Z,88.60
2023-09-05T23:30:14.524Z,91.30
2023-09-05T23:32:43.004Z,93.20
2023-09-05T23:35:10.712Z,93.60
2023-09-05T23:37:38.670Z,94.50
2023-09-05T23:40:09.740Z,94.80
2023-09-05T23:42:37.513Z,94.80
2023-09-05T23:45:07.139Z,94.90
2023-09-05T23:47:35.181Z,95.10
2023-09-05T23:50:02.824Z,95.40
2023-09-05T23:52:34.649Z,94.70
2023-09-05T23:55:03.218Z,93.30
2023-09-05T23:57:30.872Z,92.60
2023-09-05T23:59:58.946Z,92.00
